createdAt,value
2023-02-15T00:01:41.161Z,101991.22
2023-02-15T00:04:10.814Z,101999.25
2023-02-15T00:06:39.889Z,101997.63
2023-02-15T00:09:08.946Z,101996.03
2023-02-15T00:11:50.804Z,102000.09
2023-02-15T00:14:23.635Z,101993.50
2023-02-15T00:16:53.491Z,101991.78
2023-02-15T00:19:23.594Z,101996.81
2023-02-15T00:21:52.653Z,101985.66
2023-02-15T00:24:21.871Z,101985.75
2023-02-15T00:26:51.422Z,101987.09
2023-02-15T00:29:22.856Z,101986.22
2023-02-15T00:31:51.745Z,101981.84
2023-02-15T00:34:21.858Z,101979.00
2023-02-15T00:36:51.573Z,101972.09
2023-02-15T00:39:21.224Z,101974.13
2023-02-15T00:41:50.191Z,101971.63
2023-02-15T00:44:21.805Z,101969.28
2023-02-15T00:46:50.377Z,101961.06
2023-02-15T00:49:19.391Z,101963.78
2023-02-15T00:51:48.352Z,101958.38
2023-02-15T00:54:17.470Z,101959.38
2023-02-15T00:56:46.499Z,101963.47
2023-02-15T00:59:15.678Z,101959.72
2023-02-15T01:01:45.690Z,101965.44
2023-02-15T01:04:15.254Z,101959.28
2023-02-15T01:06:44.289Z,101960.03
2023-02-15T01:09:14.731Z,101955.50
2023-02-15T01:11:43.782Z,101956.53
2023-02-15T01:14:14.429Z,101941.09
2023-02-15T01:16:45.434Z,101948.13
2023-02-15T01:19:14.856Z,101944.75
2023-02-15T01:21:43.850Z,101945.03
2023-02-15T01:24:15.154Z,101938.19
2023-02-15T01:26:44.947Z,101931.69
2023-02-15T01:29:14.079Z,101935.72
2023-02-15T01:31:42.956Z,101933.63
2023-02-15T01:34:13.543Z,101937.50
2023-02-15T01:36:42.618Z,101946.59
2023-02-15T01:39:11.612Z,101936.81
2023-02-15T01:41:40.701Z,101937.59
2023-02-15T01:44:42.858Z,101931.09
2023-02-15T01:47:12.091Z,101937.69
2023-02-15T01:49:42.756Z,101937.00
2023-02-15T01:52:13.194Z,101947.59
2023-02-15T01:54:43.960Z,101933.97
2023-02-15T01:57:15.004Z,101931.06
2023-02-15T01:59:45.899Z,101931.69
2023-02-15T02:02:16.678Z,101922.72
2023-02-15T02:04:50.003Z,101923.25
2023-02-15T02:07:23.168Z,101922.03
2023-02-15T02:09:52.681Z,101925.63
2023-02-15T02:12:26.612Z,101918.31
2023-02-15T02:14:56.644Z,101914.19
2023-02-15T02:17:33.338Z,101915.88
2023-02-15T02:20:29.203Z,101915.59
2023-02-15T02:23:22.228Z,101911.03
2023-02-15T02:26:27.717Z,101913.91
2023-02-15T02:29:20.898Z,101907.72
2023-02-15T02:32:29.311Z,101901.50
2023-02-15T02:35:02.904Z,101901.72
2023-02-15T02:37:37.522Z,101903.75
2023-02-15T02:40:10.711Z,101904.72
2023-02-15T02:42:42.268Z,101905.06
2023-02-15T02:45:15.032Z,101895.03
2023-02-15T02:47:47.833Z,101894.69
2023-02-15T02:50:20.847Z,101898.09
2023-02-15T02:52:51.147Z,101896.63
2023-02-15T02:55:23.399Z,101898.06
2023-02-15T02:57:56.126Z,101896.91
2023-02-15T03:00:27.177Z,101902.34
2023-02-15T03:02:59.683Z,101892.38
2023-02-15T03:05:32.203Z,101888.22
2023-02-15T03:08:02.208Z,101893.13
2023-02-15T03:10:31.864Z,101890.84
2023-02-15T03:13:00.984Z,101890.41
2023-02-15T03:15:53.419Z,101891.56
2023-02-15T03:18:25.392Z,101886.41
2023-02-15T03:20:57.595Z,101890.41
2023-02-15T03:23:28.374Z,101886.81
2023-02-15T03:26:01.833Z,101886.19
2023-02-15T03:28:38.670Z,101888.91
2023-02-15T03:31:09.714Z,101892.19
2023-02-15T03:33:42.839Z,101888.63
2023-02-15T03:36:20.319Z,101900.13
2023-02-15T03:38:54.327Z,101899.25
2023-02-15T03:41:27.629Z,101891.13
2023-02-15T03:43:59.231Z,101889.53
2023-02-15T03:46:32.396Z,101897.34
2023-02-15T03:49:04.327Z,101894.84
2023-02-15T03:51:39.482Z,101886.91
2023-02-15T03:54:11.113Z,101889.06
2023-02-15T03:56:41.931Z,101884.00
2023-02-15T03:59:28.169Z,101881.19
2023-02-15T04:02:04.100Z,101881.50
2023-02-15T04:04:36.327Z,101873.22
2023-02-15T04:07:08.675Z,101881.50
2023-02-15T04:09:55.109Z,101880.50
2023-02-15T04:12:24.369Z,101872.69
2023-02-15T04:15:10.703Z,101880.16
2023-02-15T04:17:39.963Z,101882.00
2023-02-15T04:20:28.355Z,101872.94
2023-02-15T04:23:15.832Z,101877.56
2023-02-15T04:25:44.947Z,101874.34
2023-02-15T04:28:13.973Z,101877.88
2023-02-15T04:30:43.068Z,101874.94
2023-02-15T04:33:12.093Z,101874.94
2023-02-15T04:35:41.184Z,101873.31
2023-02-15T04:38:11.970Z,101869.31
2023-02-15T04:40:40.783Z,101870.66
2023-02-15T04:43:09.811Z,101868.94
2023-02-15T04:45:38.975Z,101870.94
2023-02-15T04:48:08.022Z,101873.09
2023-02-15T04:50:37.187Z,101876.56
2023-02-15T04:53:06.269Z,101877.00
2023-02-15T04:55:36.651Z,101877.66
2023-02-15T04:58:05.884Z,101873.56
2023-02-15T05:00:35.005Z,101870.59
2023-02-15T05:03:04.226Z,101868.50
2023-02-15T05:05:33.427Z,101878.53
2023-02-15T05:08:02.720Z,101880.00
2023-02-15T05:10:31.422Z,101885.53
2023-02-15T05:13:02.152Z,101880.66
2023-02-15T05:15:31.278Z,101887.72
2023-02-15T05:18:00.346Z,101894.00
2023-02-15T05:20:29.697Z,101892.31
2023-02-15T05:22:58.731Z,101904.63
2023-02-15T05:25:44.983Z,101902.44
2023-02-15T05:28:23.728Z,101906.13
2023-02-15T05:30:54.192Z,101907.84
2023-02-15T05:33:23.367Z,101902.91
2023-02-15T05:35:52.481Z,101903.56
2023-02-15T05:38:21.641Z,101900.69
2023-02-15T05:40:50.345Z,101909.22
2023-02-15T05:43:21.294Z,101896.47
2023-02-15T05:45:51.044Z,101892.69
2023-02-15T05:48:21.269Z,101891.81
2023-02-15T05:50:59.778Z,101892.88
2023-02-15T05:53:29.434Z,101896.59
2023-02-15T05:56:00.977Z,101890.28
2023-02-15T05:58:32.828Z,101890.94
2023-02-15T06:01:02.213Z,101895.09
2023-02-15T06:03:31.400Z,101896.22
2023-02-15T06:06:00.886Z,101894.06
2023-02-15T06:08:30.021Z,101895.47
2023-02-15T06:10:59.114Z,101902.06
2023-02-15T06:13:27.823Z,101896.41
2023-02-15T06:15:58.466Z,101898.28
2023-02-15T06:18:27.740Z,101893.00
2023-02-15T06:20:56.905Z,101896.09
2023-02-15T06:23:26.203Z,101895.94
2023-02-15T06:25:54.861Z,101902.81
2023-02-15T06:28:23.976Z,101908.41
2023-02-15T06:30:53.169Z,101898.69
2023-02-15T06:33:24.185Z,101901.91
2023-02-15T06:35:53.326Z,101902.81
2023-02-15T06:38:24.611Z,101905.28
2023-02-15T06:40:53.519Z,101897.84
2023-02-15T06:43:22.522Z,101912.19
2023-02-15T06:45:51.626Z,101911.41
2023-02-15T06:48:20.662Z,101908.41
2023-02-15T06:50:51.479Z,101908.03
2023-02-15T06:53:20.624Z,101904.63
2023-02-15T06:55:49.365Z,101909.63
2023-02-15T06:58:18.565Z,101907.28
2023-02-15T07:00:47.773Z,101914.34
2023-02-15T07:03:17.117Z,101904.00
2023-02-15T07:05:46.689Z,101903.66
2023-02-15T07:08:17.355Z,101903.06
2023-02-15T07:10:46.054Z,101901.31
2023-02-15T07:13:14.406Z,101905.44
2023-02-15T07:15:43.617Z,101898.53
2023-02-15T07:18:12.961Z,101903.31
2023-02-15T07:20:42.786Z,101891.31
2023-02-15T07:23:11.826Z,101895.03
2023-02-15T07:25:42.100Z,101898.59
2023-02-15T07:28:11.497Z,101893.31
2023-02-15T07:30:41.346Z,101899.09
2023-02-15T07:33:25.659Z,101894.50
2023-02-15T07:35:56.036Z,101892.66
2023-02-15T07:38:24.820Z,101893.44
2023-02-15T07:41:00.449Z,101896.44
2023-02-15T07:43:30.730Z,101892.94
2023-02-15T07:46:02.251Z,101886.31
2023-02-15T07:48:31.656Z,101887.81
2023-02-15T07:51:01.745Z,101888.16
2023-02-15T07:53:30.564Z,101889.00
2023-02-15T07:56:03.133Z,101885.13
2023-02-15T07:58:45.910Z,101876.56
2023-02-15T08:01:15.302Z,101881.63
2023-02-15T08:03:45.370Z,101891.75
2023-02-15T08:06:15.122Z,101885.44
2023-02-15T08:08:44.736Z,101882.28
2023-02-15T08:11:37.642Z,101876.03
2023-02-15T08:14:08.344Z,101877.03
2023-02-15T08:16:39.356Z,101873.97
2023-02-15T08:19:10.326Z,101871.13
2023-02-15T08:21:41.862Z,101877.28
2023-02-15T08:24:12.142Z,101871.97
2023-02-15T08:26:43.968Z,101870.75
2023-02-15T08:29:13.853Z,101870.53
2023-02-15T08:31:43.048Z,101873.97
2023-02-15T08:34:13.723Z,101874.72
2023-02-15T08:36:42.795Z,101871.44
2023-02-15T08:39:11.912Z,101869.63
2023-02-15T08:41:44.374Z,101871.69
2023-02-15T08:44:13.653Z,101859.44
2023-02-15T08:46:43.700Z,101864.06
2023-02-15T08:49:15.123Z,101867.47
2023-02-15T08:51:44.809Z,101858.53
2023-02-15T08:54:16.623Z,101856.13
2023-02-15T08:56:47.896Z,101854.41
2023-02-15T08:59:18.476Z,101849.84
2023-02-15T09:01:49.630Z,101846.69
2023-02-15T09:04:19.114Z,101847.09
2023-02-15T09:06:50.356Z,101847.66
2023-02-15T09:09:20.808Z,101843.50
2023-02-15T09:11:58.711Z,101845.94
2023-02-15T09:14:29.431Z,101840.66
2023-02-15T09:16:58.262Z,101836.38
2023-02-15T09:19:27.760Z,101828.88
2023-02-15T09:21:56.950Z,101823.28
2023-02-15T09:24:26.234Z,101831.63
2023-02-15T09:26:56.833Z,101834.63
2023-02-15T09:29:25.979Z,101837.09
2023-02-15T09:31:54.833Z,101830.97
2023-02-15T09:34:24.844Z,101828.53
2023-02-15T09:36:54.572Z,101830.69
2023-02-15T09:39:25.784Z,101833.41
2023-02-15T09:42:17.414Z,101832.09
2023-02-15T09:45:01.749Z,101824.75
2023-02-15T09:47:45.504Z,101830.25
2023-02-15T09:50:19.526Z,101825.44
2023-02-15T09:53:00.285Z,101831.06
2023-02-15T09:55:44.539Z,101824.06
2023-02-15T09:58:19.774Z,101832.47
2023-02-15T10:00:53.776Z,101816.19
2023-02-15T10:03:32.860Z,101816.25
2023-02-15T10:06:14.816Z,101826.44
2023-02-15T10:09:09.419Z,101815.63
2023-02-15T10:11:55.045Z,101812.69
2023-02-15T10:15:03.690Z,101814.38
2023-02-15T10:17:44.201Z,101814.13
2023-02-15T10:20:22.476Z,101817.00
2023-02-15T10:23:03.178Z,101807.16
2023-02-15T10:25:41.950Z,101807.53
2023-02-15T10:28:19.277Z,101801.66
2023-02-15T10:30:52.518Z,101805.41
2023-02-15T10:33:37.572Z,101792.66
2023-02-15T10:36:14.762Z,101793.34
2023-02-15T10:38:46.175Z,101797.91
2023-02-15T10:41:25.393Z,101790.91
2023-02-15T10:44:09.547Z,101791.47
2023-02-15T10:47:02.084Z,101784.16
2023-02-15T10:49:47.941Z,101775.91
2023-02-15T10:52:25.624Z,101775.16
2023-02-15T10:54:59.382Z,101775.16
2023-02-15T10:57:35.048Z,101770.56
2023-02-15T11:00:12.372Z,101768.59
2023-02-15T11:03:17.243Z,101764.75
2023-02-15T11:05:56.798Z,101759.56
2023-02-15T11:08:27.042Z,101753.66
2023-02-15T11:10:58.980Z,101756.81
2023-02-15T11:13:35.016Z,101760.03
2023-02-15T11:16:07.231Z,101758.91
2023-02-15T11:18:39.293Z,101758.31
2023-02-15T11:21:13.367Z,101759.28
2023-02-15T11:23:45.704Z,101754.84
2023-02-15T11:26:18.538Z,101745.47
2023-02-15T11:28:52.207Z,101755.66
2023-02-15T11:31:23.999Z,101756.94
2023-02-15T11:33:55.616Z,101748.78
2023-02-15T11:36:28.952Z,101745.22
2023-02-15T11:39:00.766Z,101744.31
2023-02-15T11:41:32.618Z,101734.84
2023-02-15T11:44:07.459Z,101743.59
2023-02-15T11:46:36.438Z,101735.38
2023-02-15T11:49:09.883Z,101736.34
2023-02-15T11:51:40.358Z,101741.84
2023-02-15T11:54:11.160Z,101734.56
2023-02-15T11:56:40.146Z,101728.53
2023-02-15T11:59:13.268Z,101731.00
2023-02-15T12:01:45.141Z,101733.19
2023-02-15T12:04:20.876Z,101722.00
2023-02-15T12:07:02.175Z,101716.03
2023-02-15T12:09:37.191Z,101717.84
2023-02-15T12:12:26.881Z,101706.81
2023-02-15T12:14:57.909Z,101715.03
2023-02-15T12:17:29.266Z,101708.03
2023-02-15T12:19:59.487Z,101718.91
2023-02-15T12:22:32.726Z,101704.69
2023-02-15T12:25:04.303Z,101703.75
2023-02-15T12:27:35.420Z,101691.22
2023-02-15T12:30:08.434Z,101699.56
2023-02-15T12:32:38.704Z,101703.03
2023-02-15T12:35:11.898Z,101702.16
2023-02-15T12:37:42.302Z,101691.91
2023-02-15T12:40:23.023Z,101686.72
2023-02-15T12:42:52.129Z,101691.41
2023-02-15T12:45:27.599Z,101689.66
2023-02-15T12:48:19.130Z,101680.44
2023-02-15T12:50:54.800Z,101676.75
2023-02-15T12:53:33.665Z,101668.78
2023-02-15T12:56:04.440Z,101675.81
2023-02-15T12:58:33.714Z,101666.06
2023-02-15T13:01:13.802Z,101666.78
2023-02-15T13:03:59.944Z,101660.72
2023-02-15T13:06:29.980Z,101666.56
2023-02-15T13:09:02.033Z,101670.72
2023-02-15T13:11:35.383Z,101670.84
2023-02-15T13:14:06.166Z,101665.97
2023-02-15T13:16:35.108Z,101655.59
2023-02-15T13:19:06.973Z,101658.63
2023-02-15T13:21:39.704Z,101644.94
2023-02-15T13:24:18.361Z,101646.44
2023-02-15T13:26:48.401Z,101641.16
2023-02-15T13:29:21.205Z,101641.16
2023-02-15T13:31:51.139Z,101630.22
2023-02-15T13:34:20.880Z,101632.00
2023-02-15T13:36:54.381Z,101639.84
2023-02-15T13:39:31.470Z,101627.66
2023-02-15T13:42:03.673Z,101628.25
2023-02-15T13:44:50.852Z,101623.00
2023-02-15T13:47:25.053Z,101631.44
2023-02-15T13:50:05.649Z,101627.81
2023-02-15T13:52:38.881Z,101632.59
2023-02-15T13:55:27.176Z,101628.25
2023-02-15T13:58:26.357Z,101631.66
2023-02-15T14:01:02.463Z,101634.84
2023-02-15T14:03:52.020Z,101635.16
2023-02-15T14:06:36.740Z,101628.47
2023-02-15T14:09:14.532Z,101626.38
2023-02-15T14:11:49.627Z,101621.69
2023-02-15T14:14:32.022Z,101612.94
2023-02-15T14:17:07.488Z,101623.84
2023-02-15T14:19:40.502Z,101619.47
2023-02-15T14:22:15.038Z,101610.44
2023-02-15T14:24:47.561Z,101610.63
2023-02-15T14:27:24.606Z,101614.50
2023-02-15T14:29:56.127Z,101607.91
2023-02-15T14:32:30.163Z,101610.56
2023-02-15T14:35:00.051Z,101603.22
2023-02-15T14:37:32.097Z,101617.81
2023-02-15T14:40:22.798Z,101600.50
2023-02-15T14:42:56.781Z,101613.97
2023-02-15T14:45:34.321Z,101608.59
2023-02-15T14:48:10.612Z,101612.63
2023-02-15T14:50:47.387Z,101616.03
2023-02-15T14:53:27.629Z,101605.19
2023-02-15T14:56:09.681Z,101595.63
2023-02-15T14:58:41.214Z,101601.78
2023-02-15T15:01:12.108Z,101599.25
2023-02-15T15:03:46.460Z,101589.59
2023-02-15T15:06:28.694Z,101590.78
2023-02-15T15:09:02.084Z,101582.88
2023-02-15T15:11:44.797Z,101585.16
2023-02-15T15:14:39.520Z,101592.13
2023-02-15T15:17:09.632Z,101582.75
2023-02-15T15:20:00.731Z,101582.13
2023-02-15T15:22:30.625Z,101573.94
2023-02-15T15:25:00.832Z,101578.63
2023-02-15T15:27:44.297Z,101578.19
2023-02-15T15:31:02.304Z,101572.19
2023-02-15T15:33:56.037Z,101560.34
2023-02-15T15:36:43.927Z,101566.19
2023-02-15T15:39:28.774Z,101564.81
2023-02-15T15:42:04.247Z,101569.22
2023-02-15T15:45:17.269Z,101564.34
2023-02-15T15:48:07.324Z,101565.25
2023-02-15T15:50:41.722Z,101558.44
2023-02-15T15:53:20.070Z,101554.66
2023-02-15T15:55:50.156Z,101551.06
2023-02-15T15:58:20.629Z,101558.63
2023-02-15T16:00:52.582Z,101571.94
2023-02-15T16:03:24.406Z,101559.16
2023-02-15T16:05:56.737Z,101571.66
2023-02-15T16:08:31.311Z,101559.56
2023-02-15T16:11:00.793Z,101558.75
2023-02-15T16:13:30.077Z,101553.00
2023-02-15T16:15:59.392Z,101554.25
2023-02-15T16:18:29.799Z,101554.28
2023-02-15T16:21:00.557Z,101550.34
2023-02-15T16:23:55.672Z,101557.84
2023-02-15T16:26:41.853Z,101544.59
2023-02-15T16:29:17.775Z,101545.16
2023-02-15T16:32:00.982Z,101544.50
2023-02-15T16:34:33.533Z,101535.75
2023-02-15T16:37:18.222Z,101539.38
2023-02-15T16:39:49.134Z,101529.19
2023-02-15T16:42:19.387Z,101531.13
2023-02-15T16:44:48.361Z,101532.41
2023-02-15T16:47:20.144Z,101531.84
2023-02-15T16:49:50.808Z,101531.53
2023-02-15T16:52:24.399Z,101522.03
2023-02-15T16:54:57.295Z,101524.28
2023-02-15T16:57:29.987Z,101529.84
2023-02-15T17:00:03.322Z,101518.00
2023-02-15T17:02:55.003Z,101521.88
2023-02-15T17:05:24.533Z,101520.50
2023-02-15T17:08:13.632Z,101517.84
2023-02-15T17:10:46.723Z,101522.41
2023-02-15T17:13:17.044Z,101519.66
2023-02-15T17:15:46.436Z,101517.84
2023-02-15T17:18:18.956Z,101507.88
2023-02-15T17:20:48.995Z,101506.38
2023-02-15T17:23:25.614Z,101505.31
2023-02-15T17:25:54.690Z,101504.47
2023-02-15T17:28:26.352Z,101507.72
2023-02-15T17:30:56.257Z,101495.53
2023-02-15T17:33:30.104Z,101496.72
2023-02-15T17:36:11.411Z,101486.75
2023-02-15T17:38:43.419Z,101486.41
2023-02-15T17:41:12.584Z,101488.94
2023-02-15T17:43:43.202Z,101481.22
2023-02-15T17:46:13.824Z,101479.59
2023-02-15T17:48:44.044Z,101483.91
2023-02-15T17:51:14.876Z,101475.19
2023-02-15T17:54:05.889Z,101475.91
2023-02-15T17:56:34.244Z,101478.81
2023-02-15T17:59:07.749Z,101470.88
2023-02-15T18:01:54.560Z,101468.59
2023-02-15T18:04:41.428Z,101465.75
2023-02-15T18:07:28.545Z,101465.25
2023-02-15T18:10:16.289Z,101458.72
2023-02-15T18:12:45.527Z,101461.66
2023-02-15T18:15:14.804Z,101464.00
2023-02-15T18:17:45.280Z,101464.31
2023-02-15T18:20:20.180Z,101452.09
2023-02-15T18:22:49.099Z,101455.91
2023-02-15T18:25:24.318Z,101459.69
2023-02-15T18:27:55.223Z,101441.22
2023-02-15T18:30:26.888Z,101448.09
2023-02-15T18:32:58.213Z,101433.59
2023-02-15T18:35:28.895Z,101447.94
2023-02-15T18:37:57.901Z,101434.72
2023-02-15T18:40:29.672Z,101433.03
2023-02-15T18:42:59.154Z,101432.84
2023-02-15T18:45:33.076Z,101437.78
2023-02-15T18:48:02.914Z,101432.66
2023-02-15T18:50:35.394Z,101438.00
2023-02-15T18:53:05.528Z,101427.53
2023-02-15T18:55:36.821Z,101431.88
2023-02-15T18:58:05.965Z,101428.03
2023-02-15T19:00:36.382Z,101430.47
2023-02-15T19:03:05.812Z,101426.72
2023-02-15T19:05:35.551Z,101429.38
2023-02-15T19:08:05.168Z,101420.31
2023-02-15T19:10:36.332Z,101420.06
2023-02-15T19:13:05.371Z,101412.13
2023-02-15T19:15:34.612Z,101411.66
2023-02-15T19:18:03.706Z,101409.59
2023-02-15T19:20:34.494Z,101406.00
2023-02-15T19:23:03.732Z,101405.72
2023-02-15T19:25:37.701Z,101411.34
2023-02-15T19:28:15.802Z,101406.81
2023-02-15T19:30:44.970Z,101405.50
2023-02-15T19:33:18.407Z,101403.72
2023-02-15T19:35:49.085Z,101403.56
2023-02-15T19:38:20.532Z,101388.16
2023-02-15T19:40:49.528Z,101387.66
2023-02-15T19:43:26.311Z,101392.09
2023-02-15T19:45:55.763Z,101399.78
2023-02-15T19:48:25.033Z,101392.94
2023-02-15T19:50:55.522Z,101387.22
2023-02-15T19:53:25.762Z,101389.69
2023-02-15T19:55:55.056Z,101390.25
2023-02-15T19:58:25.637Z,101395.38
2023-02-15T20:00:54.871Z,101389.38
2023-02-15T20:03:24.083Z,101375.41
2023-02-15T20:05:53.432Z,101375.47
2023-02-15T20:08:23.759Z,101371.72
2023-02-15T20:10:52.552Z,101367.47
2023-02-15T20:13:22.180Z,101375.19
2023-02-15T20:15:53.324Z,101359.78
2023-02-15T20:18:22.878Z,101361.25
2023-02-15T20:20:53.347Z,101357.34
2023-02-15T20:23:25.269Z,101356.66
2023-02-15T20:25:54.452Z,101349.03
2023-02-15T20:28:27.240Z,101351.91
2023-02-15T20:30:57.983Z,101348.34
2023-02-15T20:33:27.168Z,101353.69
2023-02-15T20:35:56.416Z,101354.84
2023-02-15T20:38:28.308Z,101356.84
2023-02-15T20:41:15.262Z,101349.75
2023-02-15T20:43:44.580Z,101343.00
2023-02-15T20:46:15.180Z,101335.69
2023-02-15T20:48:44.300Z,101323.53
2023-02-15T20:51:17.563Z,101334.34
2023-02-15T20:53:47.220Z,101331.09
2023-02-15T20:56:19.876Z,101333.22
2023-02-15T20:58:48.724Z,101333.28
2023-02-15T21:01:20.380Z,101333.69
2023-02-15T21:03:53.797Z,101336.75
2023-02-15T21:06:22.966Z,101326.38
2023-02-15T21:08:52.075Z,101324.66
2023-02-15T21:11:22.050Z,101316.72
2023-02-15T21:13:51.814Z,101328.34
2023-02-15T21:16:22.486Z,101312.69
2023-02-15T21:18:51.638Z,101316.19
2023-02-15T21:21:25.132Z,101307.81
2023-02-15T21:23:54.722Z,101306.81
2023-02-15T21:26:24.175Z,101306.75
2023-02-15T21:28:53.122Z,101309.69
2023-02-15T21:31:25.696Z,101305.81
2023-02-15T21:33:55.019Z,101303.81
2023-02-15T21:36:26.893Z,101305.63
2023-02-15T21:38:56.180Z,101310.22
2023-02-15T21:41:43.010Z,101300.34
2023-02-15T21:44:34.796Z,101281.88
2023-02-15T21:47:23.055Z,101290.59
2023-02-15T21:49:53.055Z,101284.38
2023-02-15T21:52:22.958Z,101277.94
2023-02-15T21:54:51.999Z,101268.38
2023-02-15T21:57:22.368Z,101269.69
2023-02-15T21:59:51.588Z,101263.94
2023-02-15T22:02:32.491Z,101270.69
2023-02-15T22:05:01.457Z,101272.34
2023-02-15T22:07:30.438Z,101255.81
2023-02-15T22:09:59.690Z,101258.41
2023-02-15T22:12:28.699Z,101260.41
2023-02-15T22:14:57.760Z,101253.19
2023-02-15T22:17:29.175Z,101242.47
2023-02-15T22:20:00.955Z,101240.25
2023-02-15T22:22:30.922Z,101224.03
2023-02-15T22:24:59.975Z,101231.41
2023-02-15T22:27:31.675Z,101230.41
2023-02-15T22:30:00.895Z,101222.16
2023-02-15T22:32:30.033Z,101222.19
2023-02-15T22:35:00.598Z,101213.03
2023-02-15T22:37:28.969Z,101210.38
2023-02-15T22:39:57.993Z,101212.41
2023-02-15T22:42:28.794Z,101206.22
2023-02-15T22:44:58.744Z,101208.75
2023-02-15T22:47:29.091Z,101210.13
2023-02-15T22:49:57.714Z,101215.19
2023-02-15T22:52:28.196Z,101214.84
2023-02-15T22:54:57.208Z,101212.25
2023-02-15T22:57:30.852Z,101212.56
2023-02-15T23:00:01.546Z,101207.06
2023-02-15T23:02:30.811Z,101214.75
2023-02-15T23:04:59.763Z,101209.00
2023-02-15T23:07:30.382Z,101203.41
2023-02-15T23:09:59.460Z,101208.75
2023-02-15T23:12:50.742Z,101202.66
2023-02-15T23:15:19.893Z,101203.38
2023-02-15T23:17:48.937Z,101195.09
2023-02-15T23:20:18.059Z,101199.25
2023-02-15T23:22:48.189Z,101200.56
2023-02-15T23:25:21.908Z,101196.31
2023-02-15T23:27:59.793Z,101193.69
2023-02-15T23:30:29.002Z,101189.91
2023-02-15T23:32:58.686Z,101192.69
2023-02-15T23:35:27.722Z,101185.53
2023-02-15T23:37:57.813Z,101178.00
2023-02-15T23:40:44.435Z,101182.53
2023-02-15T23:43:21.052Z,101172.22
2023-02-15T23:45:50.088Z,101172.09
2023-02-15T23:48:33.665Z,101163.06
2023-02-15T23:51:03.800Z,101166.38
2023-02-15T23:53:34.900Z,101160.16
2023-02-15T23:56:04.090Z,101151.06
2023-02-15T23:58:37.823Z,101149.19
